sensor_id;sensor_type;location;lat;lon;timestamp;P1;durP1;ratioP1;P2;durP2;ratioP2
28009;SDS011;15334;49.494;8.410;2023-05-07T00:00:02;6.78;;;2.53;;
28009;SDS011;15334;49.494;8.410;2023-05-07T00:02:53;8.45;;;2.88;;
28009;SDS011;15334;49.494;8.410;2023-05-07T00:05:38;4.28;;;2.30;;
28009;SDS011;15334;49.494;8.410;2023-05-07T00:08:12;5.05;;;2.50;;
28009;SDS011;15334;49.494;8.410;2023-05-07T00:10:43;4.72;;;2.53;;
28009;SDS011;15334;49.494;8.410;2023-05-07T00:13:12;6.00;;;2.13;;
28009;SDS011;15334;49.494;8.410;2023-05-07T00:15:41;4.07;;;2.13;;
28009;SDS011;15334;49.494;8.410;2023-05-07T00:18:16;4.80;;;2.15;;
28009;SDS011;15334;49.494;8.410;2023-05-07T00:23:21;5.30;;;2.63;;
28009;SDS011;15334;49.494;8.410;2023-05-07T00:25:54;4.03;;;2.55;;
28009;SDS011;15334;49.494;8.410;2023-05-07T00:28:25;6.22;;;2.30;;
28009;SDS011;15334;49.494;8.410;2023-05-07T00:30:53;4.30;;;2.20;;
28009;SDS011;15334;49.494;8.410;2023-05-07T00:33:25;4.40;;;2.47;;
28009;SDS011;15334;49.494;8.410;2023-05-07T00:35:53;5.47;;;2.30;;
28009;SDS011;15334;49.494;8.410;2023-05-07T00:38:22;5.25;;;2.42;;
28009;SDS011;15334;49.494;8.410;2023-05-07T00:41:00;5.57;;;2.80;;
28009;SDS011;15334;49.494;8.410;2023-05-07T00:43:31;5.93;;;2.38;;
28009;SDS011;15334;49.494;8.410;2023-05-07T00:46:03;7.78;;;2.78;;
28009;SDS011;15334;49.494;8.410;2023-05-07T00:48:33;4.10;;;2.47;;
28009;SDS011;15334;49.494;8.410;2023-05-07T00:51:03;3.58;;;2.65;;
28009;SDS011;15334;49.494;8.410;2023-05-07T00:53:34;4.75;;;2.20;;
28009;SDS011;15334;49.494;8.410;2023-05-07T00:56:06;5.22;;;2.70;;
28009;SDS011;15334;49.494;8.410;2023-05-07T00:58:38;5.13;;;2.70;;
28009;SDS011;15334;49.494;8.410;2023-05-07T01:01:15;6.15;;;3.60;;
28009;SDS011;15334;49.494;8.410;2023-05-07T01:03:45;4.30;;;2.88;;
28009;SDS011;15334;49.494;8.410;2023-05-07T01:06:15;7.30;;;3.80;;
28009;SDS011;15334;49.494;8.410;2023-05-07T01:08:45;5.03;;;2.83;;
28009;SDS011;15334;49.494;8.410;2023-05-07T01:11:18;4.95;;;2.40;;
28009;SDS011;15334;49.494;8.410;2023-05-07T01:13:49;5.20;;;3.17;;
28009;SDS011;15334;49.494;8.410;2023-05-07T01:16:23;7.03;;;2.85;;
28009;SDS011;15334;49.494;8.410;2023-05-07T01:18:53;7.03;;;3.10;;
28009;SDS011;15334;49.494;8.410;2023-05-07T01:21:22;5.63;;;2.80;;
28009;SDS011;15334;49.494;8.410;2023-05-07T01:24:03;6.45;;;3.08;;
28009;SDS011;15334;49.494;8.410;2023-05-07T01:26:36;8.25;;;3.55;;
28009;SDS011;15334;49.494;8.410;2023-05-07T01:29:13;5.90;;;3.30;;
28009;SDS011;15334;49.494;8.410;2023-05-07T01:31:45;6.10;;;3.22;;
28009;SDS011;15334;49.494;8.410;2023-05-07T01:34:19;8.82;;;3.88;;
28009;SDS011;15334;49.494;8.410;2023-05-07T01:36:52;7.18;;;3.97;;
28009;SDS011;15334;49.494;8.410;2023-05-07T01:39:25;7.78;;;3.25;;
28009;SDS011;15334;49.494;8.410;2023-05-07T01:41:56;9.77;;;4.05;;
28009;SDS011;15334;49.494;8.410;2023-05-07T01:44:26;7.47;;;4.53;;
28009;SDS011;15334;49.494;8.410;2023-05-07T01:46:55;7.32;;;4.30;;
28009;SDS011;15334;49.494;8.410;2023-05-07T01:49:26;7.13;;;3.83;;
28009;SDS011;15334;49.494;8.410;2023-05-07T01:51:54;6.70;;;4.25;;
28009;SDS011;15334;49.494;8.410;2023-05-07T01:54:26;8.80;;;3.75;;
28009;SDS011;15334;49.494;8.410;2023-05-07T01:56:55;7.00;;;3.83;;
28009;SDS011;15334;49.494;8.410;2023-05-07T01:59:24;5.28;;;3.30;;
28009;SDS011;15334;49.494;8.410;2023-05-07T02:01:52;7.53;;;3.13;;
28009;SDS011;15334;49.494;8.410;2023-05-07T02:04:21;5.65;;;2.95;;
28009;SDS011;15334;49.494;8.410;2023-05-07T02:06:54;6.95;;;3.10;;
28009;SDS011;15334;49.494;8.410;2023-05-07T02:09:28;6.22;;;2.95;;
28009;SDS011;15334;49.494;8.410;2023-05-07T02:12:02;5.30;;;3.03;;
28009;SDS011;15334;49.494;8.410;2023-05-07T02:14:34;5.03;;;2.90;;
28009;SDS011;15334;49.494;8.410;2023-05-07T02:17:02;5.07;;;2.80;;
28009;SDS011;15334;49.494;8.410;2023-05-07T02:19:31;5.97;;;2.78;;
28009;SDS011;15334;49.494;8.410;2023-05-07T02:21:59;9.43;;;2.67;;
28009;SDS011;15334;49.494;8.410;2023-05-07T02:24:28;5.63;;;3.10;;
28009;SDS011;15334;49.494;8.410;2023-05-07T02:26:57;6.07;;;3.35;;
28009;SDS011;15334;49.494;8.410;2023-05-07T02:29:25;7.03;;;2.90;;
28009;SDS011;15334;49.494;8.410;2023-05-07T02:31:53;4.85;;;2.70;;
28009;SDS011;15334;49.494;8.410;2023-05-07T02:34:21;6.85;;;3.40;;
28009;SDS011;15334;49.494;8.410;2023-05-07T02:36:49;4.13;;;2.53;;
28009;SDS011;15334;49.494;8.410;2023-05-07T02:39:18;7.10;;;3.17;;
28009;SDS011;15334;49.494;8.410;2023-05-07T02:41:47;4.40;;;2.78;;
28009;SDS011;15334;49.494;8.410;2023-05-07T02:44:16;6.10;;;3.00;;
28009;SDS011;15334;49.494;8.410;2023-05-07T02:46:44;5.32;;;2.80;;
28009;SDS011;15334;49.494;8.410;2023-05-07T02:49:12;8.63;;;3.17;;
28009;SDS011;15334;49.494;8.410;2023-05-07T02:51:40;7.53;;;2.97;;
28009;SDS011;15334;49.494;8.410;2023-05-07T02:54:08;7.25;;;3.38;;
28009;SDS011;15334;49.494;8.410;2023-05-07T02:56:37;5.30;;;2.92;;
28009;SDS011;15334;49.494;8.410;2023-05-07T02:59:06;10.88;;;3.35;;
28009;SDS011;15334;49.494;8.410;2023-05-07T03:01:34;7.78;;;3.88;;
28009;SDS011;15334;49.494;8.410;2023-05-07T03:04:02;7.75;;;3.55;;
28009;SDS011;15334;49.494;8.410;2023-05-07T03:06:31;6.35;;;3.63;;
28009;SDS011;15334;49.494;8.410;2023-05-07T03:08:59;7.50;;;3.63;;
28009;SDS011;15334;49.494;8.410;2023-05-07T03:11:27;9.10;;;3.42;;
28009;SDS011;15334;49.494;8.410;2023-05-07T03:13:55;5.90;;;3.25;;
28009;SDS011;15334;49.494;8.410;2023-05-07T03:16:25;7.45;;;4.20;;
28009;SDS011;15334;49.494;8.410;2023-05-07T03:18:53;4.90;;;3.00;;
28009;SDS011;15334;49.494;8.410;2023-05-07T03:21:21;5.53;;;3.10;;
28009;SDS011;15334;49.494;8.410;2023-05-07T03:23:50;6.70;;;3.40;;
28009;SDS011;15334;49.494;8.410;2023-05-07T03:26:18;6.72;;;3.17;;
28009;SDS011;15334;49.494;8.410;2023-05-07T03:28:46;7.43;;;3.35;;
28009;SDS011;15334;49.494;8.410;2023-05-07T03:31:15;5.72;;;3.13;;
28009;SDS011;15334;49.494;8.410;2023-05-07T03:33:51;9.98;;;3.38;;
28009;SDS011;15334;49.494;8.410;2023-05-07T03:36:20;6.60;;;3.58;;
28009;SDS011;15334;49.494;8.410;2023-05-07T03:38:49;7.05;;;3.42;;
28009;SDS011;15334;49.494;8.410;2023-05-07T03:41:17;5.57;;;3.10;;
28009;SDS011;15334;49.494;8.410;2023-05-07T03:43:46;6.30;;;3.10;;
28009;SDS011;15334;49.494;8.410;2023-05-07T03:46:14;5.03;;;3.08;;
28009;SDS011;15334;49.494;8.410;2023-05-07T03:48:42;8.30;;;3.65;;
28009;SDS011;15334;49.494;8.410;2023-05-07T03:51:12;7.57;;;3.25;;
28009;SDS011;15334;49.494;8.410;2023-05-07T03:53:40;5.35;;;3.00;;
28009;SDS011;15334;49.494;8.410;2023-05-07T03:56:08;4.35;;;2.40;;
28009;SDS011;15334;49.494;8.410;2023-05-07T03:58:36;6.68;;;3.03;;
28009;SDS011;15334;49.494;8.410;2023-05-07T04:01:04;7.07;;;3.35;;
28009;SDS011;15334;49.494;8.410;2023-05-07T04:03:33;7.10;;;3.65;;
28009;SDS011;15334;49.494;8.410;2023-05-07T04:06:01;5.45;;;3.30;;
28009;SDS011;15334;49.494;8.410;2023-05-07T04:08:31;5.95;;;3.53;;
28009;SDS011;15334;49.494;8.410;2023-05-07T04:10:59;6.20;;;3.40;;
28009;SDS011;15334;49.494;8.410;2023-05-07T04:13:27;6.10;;;3.25;;
28009;SDS011;15334;49.494;8.410;2023-05-07T04:15:56;8.48;;;3.55;;
28009;SDS011;15334;49.494;8.410;2023-05-07T04:18:24;8.82;;;4.97;;
28009;SDS011;15334;49.494;8.410;2023-05-07T04:20:53;7.90;;;3.72;;
28009;SDS011;15334;49.494;8.410;2023-05-07T04:23:21;9.48;;;4.68;;
28009;SDS011;15334;49.494;8.410;2023-05-07T04:25:51;8.30;;;3.55;;
28009;SDS011;15334;49.494;8.410;2023-05-07T04:28:20;6.97;;;3.58;;
28009;SDS011;15334;49.494;8.410;2023-05-07T04:30:49;7.05;;;3.78;;
28009;SDS011;15334;49.494;8.410;2023-05-07T04:33:17;5.70;;;3.28;;
28009;SDS011;15334;49.494;8.410;2023-05-07T04:35:46;9.40;;;3.88;;
28009;SDS011;15334;49.494;8.410;2023-05-07T04:38:14;6.68;;;3.40;;
28009;SDS011;15334;49.494;8.410;2023-05-07T04:40:42;6.15;;;3.15;;
28009;SDS011;15334;49.494;8.410;2023-05-07T04:43:12;5.47;;;3.30;;
28009;SDS011;15334;49.494;8.410;2023-05-07T04:45:40;6.55;;;2.92;;
28009;SDS011;15334;49.494;8.410;2023-05-07T04:48:09;5.55;;;3.50;;
28009;SDS011;15334;49.494;8.410;2023-05-07T04:50:37;6.15;;;3.40;;
28009;SDS011;15334;49.494;8.410;2023-05-07T04:53:05;7.10;;;3.50;;
28009;SDS011;15334;49.494;8.410;2023-05-07T04:55:33;6.75;;;3.50;;
28009;SDS011;15334;49.494;8.410;2023-05-07T04:58:01;7.75;;;3.95;;
28009;SDS011;15334;49.494;8.410;2023-05-07T05:00:34;10.65;;;4.05;;
28009;SDS011;15334;49.494;8.410;2023-05-07T05:03:02;6.07;;;3.25;;
28009;SDS011;15334;49.494;8.410;2023-05-07T05:05:32;7.93;;;3.70;;
28009;SDS011;15334;49.494;8.410;2023-05-07T05:08:00;9.52;;;3.67;;
28009;SDS011;15334;49.494;8.410;2023-05-07T05:10:29;4.55;;;3.03;;
28009;SDS011;15334;49.494;8.410;2023-05-07T05:12:57;5.90;;;3.90;;
28009;SDS011;15334;49.494;8.410;2023-05-07T05:15:25;6.20;;;3.40;;
28009;SDS011;15334;49.494;8.410;2023-05-07T05:17:56;7.82;;;3.90;;
28009;SDS011;15334;49.494;8.410;2023-05-07T05:20:26;5.60;;;3.53;;
28009;SDS011;15334;49.494;8.410;2023-05-07T05:22:55;8.23;;;3.30;;
28009;SDS011;15334;49.494;8.410;2023-05-07T05:25:25;8.20;;;3.63;;
28009;SDS011;15334;49.494;8.410;2023-05-07T05:27:58;6.53;;;3.33;;
28009;SDS011;15334;49.494;8.410;2023-05-07T05:30:27;6.03;;;3.13;;
28009;SDS011;15334;49.494;8.410;2023-05-07T05:32:57;6.72;;;3.15;;
28009;SDS011;15334;49.494;8.410;2023-05-07T05:35:31;7.65;;;3.45;;
28009;SDS011;15334;49.494;8.410;2023-05-07T05:37:59;6.78;;;3.63;;
28009;SDS011;15334;49.494;8.410;2023-05-07T05:40:30;8.35;;;4.07;;
28009;SDS011;15334;49.494;8.410;2023-05-07T05:42:59;5.88;;;3.20;;
28009;SDS011;15334;49.494;8.410;2023-05-07T05:45:29;7.00;;;3.55;;
28009;SDS011;15334;49.494;8.410;2023-05-07T05:47:59;6.20;;;4.35;;
28009;SDS011;15334;49.494;8.410;2023-05-07T05:50:27;7.22;;;3.30;;
28009;SDS011;15334;49.494;8.410;2023-05-07T05:52:55;8.23;;;3.45;;
28009;SDS011;15334;49.494;8.410;2023-05-07T05:55:25;5.07;;;2.90;;
28009;SDS011;15334;49.494;8.410;2023-05-07T05:58:06;6.88;;;3.22;;
28009;SDS011;15334;49.494;8.410;2023-05-07T06:00:35;7.07;;;3.80;;
28009;SDS011;15334;49.494;8.410;2023-05-07T06:03:19;5.50;;;3.30;;
28009;SDS011;15334;49.494;8.410;2023-05-07T06:05:48;4.55;;;2.67;;
28009;SDS011;15334;49.494;8.410;2023-05-07T06:08:16;5.10;;;2.65;;
28009;SDS011;15334;49.494;8.410;2023-05-07T06:10:59;4.05;;;2.83;;
28009;SDS011;15334;49.494;8.410;2023-05-07T06:13:37;7.43;;;3.20;;
28009;SDS011;15334;49.494;8.410;2023-05-07T06:16:21;5.43;;;2.70;;
28009;SDS011;15334;49.494;8.410;2023-05-07T06:18:50;7.05;;;3.03;;
28009;SDS011;15334;49.494;8.410;2023-05-07T06:21:19;4.82;;;2.75;;
28009;SDS011;15334;49.494;8.410;2023-05-07T06:23:49;6.03;;;3.35;;
28009;SDS011;15334;49.494;8.410;2023-05-07T06:26:41;6.38;;;3.28;;
28009;SDS011;15334;49.494;8.410;2023-05-07T06:29:40;5.20;;;2.70;;
28009;SDS011;15334;49.494;8.410;2023-05-07T06:32:18;6.78;;;3.40;;
28009;SDS011;15334;49.494;8.410;2023-05-07T06:34:58;8.52;;;2.97;;
28009;SDS011;15334;49.494;8.410;2023-05-07T06:37:26;6.32;;;3.33;;
28009;SDS011;15334;49.494;8.410;2023-05-07T06:39:57;5.05;;;2.85;;
28009;SDS011;15334;49.494;8.410;2023-05-07T06:42:44;7.90;;;3.70;;
28009;SDS011;15334;49.494;8.410;2023-05-07T06:45:22;6.22;;;3.03;;
28009;SDS011;15334;49.494;8.410;2023-05-07T06:47:51;6.85;;;3.20;;
28009;SDS011;15334;49.494;8.410;2023-05-07T06:50:21;6.53;;;2.88;;
28009;SDS011;15334;49.494;8.410;2023-05-07T06:52:49;4.55;;;2.58;;
28009;SDS011;15334;49.494;8.410;2023-05-07T06:55:18;5.25;;;2.80;;
28009;SDS011;15334;49.494;8.410;2023-05-07T06:57:46;6.25;;;3.03;;
28009;SDS011;15334;49.494;8.410;2023-05-07T07:00:15;5.63;;;3.10;;
28009;SDS011;15334;49.494;8.410;2023-05-07T07:02:44;5.43;;;3.00;;
28009;SDS011;15334;49.494;8.410;2023-05-07T07:05:12;6.75;;;2.70;;
28009;SDS011;15334;49.494;8.410;2023-05-07T07:07:41;5.63;;;3.13;;
28009;SDS011;15334;49.494;8.410;2023-05-07T07:10:09;7.53;;;3.55;;
28009;SDS011;15334;49.494;8.410;2023-05-07T07:12:38;5.10;;;2.88;;
28009;SDS011;15334;49.494;8.410;2023-05-07T07:15:06;7.72;;;3.50;;
28009;SDS011;15334;49.494;8.410;2023-05-07T07:17:35;5.72;;;2.85;;
28009;SDS011;15334;49.494;8.410;2023-05-07T07:20:04;5.85;;;3.13;;
28009;SDS011;15334;49.494;8.410;2023-05-07T07:22:33;6.80;;;2.78;;
28009;SDS011;15334;49.494;8.410;2023-05-07T07:25:02;5.47;;;2.72;;
28009;SDS011;15334;49.494;8.410;2023-05-07T07:27:31;5.70;;;2.90;;
28009;SDS011;15334;49.494;8.410;2023-05-07T07:30:00;4.85;;;2.67;;
28009;SDS011;15334;49.494;8.410;2023-05-07T07:32:32;5.30;;;2.90;;
28009;SDS011;15334;49.494;8.410;2023-05-07T07:35:00;5.55;;;2.88;;
28009;SDS011;15334;49.494;8.410;2023-05-07T07:37:30;4.30;;;2.47;;
28009;SDS011;15334;49.494;8.410;2023-05-07T07:40:05;8.48;;;3.15;;
28009;SDS011;15334;49.494;8.410;2023-05-07T07:42:37;6.82;;;2.90;;
28009;SDS011;15334;49.494;8.410;2023-05-07T07:45:08;5.47;;;2.88;;
28009;SDS011;15334;49.494;8.410;2023-05-07T07:47:37;6.30;;;2.90;;
28009;SDS011;15334;49.494;8.410;2023-05-07T07:50:05;4.50;;;2.70;;
28009;SDS011;15334;49.494;8.410;2023-05-07T07:52:34;5.20;;;2.58;;
28009;SDS011;15334;49.494;8.410;2023-05-07T07:55:05;4.60;;;2.42;;
28009;SDS011;15334;49.494;8.410;2023-05-07T07:57:33;5.90;;;2.67;;
28009;SDS011;15334;49.494;8.410;2023-05-07T08:00:03;4.72;;;2.75;;
28009;SDS011;15334;49.494;8.410;2023-05-07T08:02:33;4.00;;;2.45;;
28009;SDS011;15334;49.494;8.410;2023-05-07T08:05:27;5.50;;;2.75;;
28009;SDS011;15334;49.494;8.410;2023-05-07T08:07:55;3.55;;;2.20;;
28009;SDS011;15334;49.494;8.410;2023-05-07T08:10:26;5.75;;;2.17;;
28009;SDS011;15334;49.494;8.410;2023-05-07T08:12:54;4.47;;;2.20;;
28009;SDS011;15334;49.494;8.410;2023-05-07T08:15:22;6.18;;;2.97;;
28009;SDS011;15334;49.494;8.410;2023-05-07T08:17:50;3.85;;;2.08;;
28009;SDS011;15334;49.494;8.410;2023-05-07T08:20:18;4.43;;;2.30;;
28009;SDS011;15334;49.494;8.410;2023-05-07T08:22:46;3.42;;;1.85;;
28009;SDS011;15334;49.494;8.410;2023-05-07T08:25:15;4.20;;;1.98;;
28009;SDS011;15334;49.494;8.410;2023-05-07T08:27:44;4.32;;;2.22;;
28009;SDS011;15334;49.494;8.410;2023-05-07T08:30:13;3.10;;;1.80;;
28009;SDS011;15334;49.494;8.410;2023-05-07T08:32:41;4.00;;;2.13;;
28009;SDS011;15334;49.494;8.410;2023-05-07T08:35:09;4.90;;;2.22;;
28009;SDS011;15334;49.494;8.410;2023-05-07T08:37:37;5.28;;;3.17;;
28009;SDS011;15334;49.494;8.410;2023-05-07T08:40:06;5.18;;;2.53;;
28009;SDS011;15334;49.494;8.410;2023-05-07T08:42:39;5.38;;;2.38;;
28009;SDS011;15334;49.494;8.410;2023-05-07T08:45:10;6.20;;;2.30;;
28009;SDS011;15334;49.494;8.410;2023-05-07T08:47:42;6.57;;;2.20;;
28009;SDS011;15334;49.494;8.410;2023-05-07T08:50:12;5.65;;;2.10;;
28009;SDS011;15334;49.494;8.410;2023-05-07T08:52:40;3.55;;;2.10;;
28009;SDS011;15334;49.494;8.410;2023-05-07T08:55:09;6.05;;;2.50;;
28009;SDS011;15334;49.494;8.410;2023-05-07T08:57:38;3.40;;;2.10;;
28009;SDS011;15334;49.494;8.410;2023-05-07T09:00:06;4.95;;;2.80;;
28009;SDS011;15334;49.494;8.410;2023-05-07T09:02:37;4.55;;;2.80;;
28009;SDS011;15334;49.494;8.410;2023-05-07T09:05:06;6.45;;;2.80;;
28009;SDS011;15334;49.494;8.410;2023-05-07T09:07:35;5.25;;;2.67;;
28009;SDS011;15334;49.494;8.410;2023-05-07T09:10:03;7.38;;;3.15;;
28009;SDS011;15334;49.494;8.410;2023-05-07T09:12:32;5.15;;;3.28;;
28009;SDS011;15334;49.494;8.410;2023-05-07T09:15:01;6.65;;;3.38;;
28009;SDS011;15334;49.494;8.410;2023-05-07T09:17:30;4.95;;;2.83;;
28009;SDS011;15334;49.494;8.410;2023-05-07T09:20:02;5.45;;;2.47;;
28009;SDS011;15334;49.494;8.410;2023-05-07T09:22:36;5.20;;;2.65;;
28009;SDS011;15334;49.494;8.410;2023-05-07T09:25:05;4.30;;;2.55;;
28009;SDS011;15334;49.494;8.410;2023-05-07T09:27:36;5.63;;;3.03;;
28009;SDS011;15334;49.494;8.410;2023-05-07T09:30:04;4.38;;;2.80;;
28009;SDS011;15334;49.494;8.410;2023-05-07T09:32:34;5.22;;;2.88;;
28009;SDS011;15334;49.494;8.410;2023-05-07T09:35:06;5.43;;;2.83;;
28009;SDS011;15334;49.494;8.410;2023-05-07T09:37:42;5.03;;;2.58;;
28009;SDS011;15334;49.494;8.410;2023-05-07T09:40:19;4.50;;;2.40;;
28009;SDS011;15334;49.494;8.410;2023-05-07T09:42:48;5.40;;;3.38;;
28009;SDS011;15334;49.494;8.410;2023-05-07T09:45:21;4.53;;;2.90;;
28009;SDS011;15334;49.494;8.410;2023-05-07T09:47:50;5.20;;;2.30;;
28009;SDS011;15334;49.494;8.410;2023-05-07T09:50:25;5.60;;;2.33;;
28009;SDS011;15334;49.494;8.410;2023-05-07T09:52:57;4.82;;;2.50;;
28009;SDS011;15334;49.494;8.410;2023-05-07T09:55:25;5.35;;;2.22;;
28009;SDS011;15334;49.494;8.410;2023-05-07T09:57:54;3.08;;;1.90;;
28009;SDS011;15334;49.494;8.410;2023-05-07T10:00:22;3.58;;;2.20;;
28009;SDS011;15334;49.494;8.410;2023-05-07T10:02:52;5.28;;;2.60;;
28009;SDS011;15334;49.494;8.410;2023-05-07T10:05:27;4.95;;;2.58;;
28009;SDS011;15334;49.494;8.410;2023-05-07T10:07:55;8.43;;;2.45;;
28009;SDS011;15334;49.494;8.410;2023-05-07T10:10:23;3.60;;;2.67;;
28009;SDS011;15334;49.494;8.410;2023-05-07T10:12:51;4.03;;;2.25;;
28009;SDS011;15334;49.494;8.410;2023-05-07T10:15:20;5.88;;;2.60;;
28009;SDS011;15334;49.494;8.410;2023-05-07T10:17:50;4.55;;;2.08;;
28009;SDS011;15334;49.494;8.410;2023-05-07T10:20:20;4.30;;;2.08;;
28009;SDS011;15334;49.494;8.410;2023-05-07T10:22:50;3.97;;;2.15;;
28009;SDS011;15334;49.494;8.410;2023-05-07T10:25:21;6.13;;;2.13;;
28009;SDS011;15334;49.494;8.410;2023-05-07T10:27:53;5.60;;;2.42;;
28009;SDS011;15334;49.494;8.410;2023-05-07T10:30:26;4.65;;;2.60;;
28009;SDS011;15334;49.494;8.410;2023-05-07T10:33:04;4.95;;;2.03;;
28009;SDS011;15334;49.494;8.410;2023-05-07T10:35:37;4.90;;;2.10;;
28009;SDS011;15334;49.494;8.410;2023-05-07T10:38:09;4.35;;;2.17;;
28009;SDS011;15334;49.494;8.410;2023-05-07T10:40:37;4.57;;;2.08;;
28009;SDS011;15334;49.494;8.410;2023-05-07T10:43:05;3.45;;;2.25;;
28009;SDS011;15334;49.494;8.410;2023-05-07T10:45:36;4.55;;;1.92;;
28009;SDS011;15334;49.494;8.410;2023-05-07T10:48:11;4.65;;;1.75;;
28009;SDS011;15334;49.494;8.410;2023-05-07T10:53:49;3.63;;;2.10;;
28009;SDS011;15334;49.494;8.410;2023-05-07T10:56:47;4.78;;;1.80;;
28009;SDS011;15334;49.494;8.410;2023-05-07T10:59:30;3.78;;;1.98;;
28009;SDS011;15334;49.494;8.410;2023-05-07T11:02:00;4.55;;;1.80;;
28009;SDS011;15334;49.494;8.410;2023-05-07T11:04:30;3.53;;;1.70;;
28009;SDS011;15334;49.494;8.410;2023-05-07T11:10:00;4.28;;;1.73;;
28009;SDS011;15334;49.494;8.410;2023-05-07T11:12:48;4.78;;;1.60;;
28009;SDS011;15334;49.494;8.410;2023-05-07T11:15:33;2.28;;;1.58;;
28009;SDS011;15334;49.494;8.410;2023-05-07T11:18:05;1.95;;;1.27;;
28009;SDS011;15334;49.494;8.410;2023-05-07T11:20:44;2.75;;;1.30;;
28009;SDS011;15334;49.494;8.410;2023-05-07T11:26:24;3.08;;;1.48;;
28009;SDS011;15334;49.494;8.410;2023-05-07T11:28:53;2.58;;;1.20;;
28009;SDS011;15334;49.494;8.410;2023-05-07T11:31:22;2.38;;;1.50;;
28009;SDS011;15334;49.494;8.410;2023-05-07T11:33:52;2.33;;;1.35;;
28009;SDS011;15334;49.494;8.410;2023-05-07T11:36:21;3.08;;;1.17;;
28009;SDS011;15334;49.494;8.410;2023-05-07T11:38:50;4.07;;;1.42;;
28009;SDS011;15334;49.494;8.410;2023-05-07T11:41:18;3.78;;;1.40;;
28009;SDS011;15334;49.494;8.410;2023-05-07T11:43:58;2.45;;;1.20;;
28009;SDS011;15334;49.494;8.410;2023-05-07T11:46:27;1.77;;;1.10;;
28009;SDS011;15334;49.494;8.410;2023-05-07T11:48:56;1.48;;;1.10;;
28009;SDS011;15334;49.494;8.410;2023-05-07T11:51:24;1.38;;;1.02;;
28009;SDS011;15334;49.494;8.410;2023-05-07T11:53:53;3.00;;;1.20;;
28009;SDS011;15334;49.494;8.410;2023-05-07T11:56:21;1.35;;;1.00;;
28009;SDS011;15334;49.494;8.410;2023-05-07T11:58:49;2.45;;;1.30;;
28009;SDS011;15334;49.494;8.410;2023-05-07T12:01:19;1.55;;;1.13;;
28009;SDS011;15334;49.494;8.410;2023-05-07T12:03:47;2.72;;;1.13;;
28009;SDS011;15334;49.494;8.410;2023-05-07T12:06:16;2.47;;;1.10;;
28009;SDS011;15334;49.494;8.410;2023-05-07T12:08:44;2.53;;;1.13;;
28009;SDS011;15334;49.494;8.410;2023-05-07T12:11:14;2.70;;;1.48;;
28009;SDS011;15334;49.494;8.410;2023-05-07T12:13:44;2.58;;;1.20;;
28009;SDS011;15334;49.494;8.410;2023-05-07T12:16:12;1.20;;;0.80;;
28009;SDS011;15334;49.494;8.410;2023-05-07T12:18:41;2.28;;;1.15;;
28009;SDS011;15334;49.494;8.410;2023-05-07T12:21:10;4.18;;;1.30;;
28009;SDS011;15334;49.494;8.410;2023-05-07T12:23:39;0.98;;;0.77;;
28009;SDS011;15334;49.494;8.410;2023-05-07T12:26:07;1.85;;;1.00;;
28009;SDS011;15334;49.494;8.410;2023-05-07T12:28:37;2.72;;;1.35;;
28009;SDS011;15334;49.494;8.410;2023-05-07T12:31:06;2.35;;;1.00;;
28009;SDS011;15334;49.494;8.410;2023-05-07T12:33:34;3.47;;;1.38;;
28009;SDS011;15334;49.494;8.410;2023-05-07T12:36:05;3.92;;;1.33;;
28009;SDS011;15334;49.494;8.410;2023-05-07T12:38:35;3.75;;;1.50;;
28009;SDS011;15334;49.494;8.410;2023-05-07T12:41:04;1.45;;;0.93;;
28009;SDS011;15334;49.494;8.410;2023-05-07T12:43:33;1.65;;;1.15;;
28009;SDS011;15334;49.494;8.410;2023-05-07T12:46:03;2.45;;;1.02;;
28009;SDS011;15334;49.494;8.410;2023-05-07T12:48:32;1.83;;;1.20;;
28009;SDS011;15334;49.494;8.410;2023-05-07T12:51:00;1.88;;;1.20;;
28009;SDS011;15334;49.494;8.410;2023-05-07T12:53:30;1.88;;;0.98;;
28009;SDS011;15334;49.494;8.410;2023-05-07T12:55:59;2.55;;;1.70;;
28009;SDS011;15334;49.494;8.410;2023-05-07T12:58:27;4.90;;;1.30;;
28009;SDS011;15334;49.494;8.410;2023-05-07T13:00:56;1.73;;;1.17;;
28009;SDS011;15334;49.494;8.410;2023-05-07T13:03:28;2.53;;;1.40;;
28009;SDS011;15334;49.494;8.410;2023-05-07T13:05:58;2.88;;;1.42;;
28009;SDS011;15334;49.494;8.410;2023-05-07T13:08:28;2.33;;;1.40;;
28009;SDS011;15334;49.494;8.410;2023-05-07T13:10:59;3.55;;;1.60;;
28009;SDS011;15334;49.494;8.410;2023-05-07T13:13:29;3.40;;;1.30;;
28009;SDS011;15334;49.494;8.410;2023-05-07T13:16:01;2.05;;;1.40;;
28009;SDS011;15334;49.494;8.410;2023-05-07T13:18:30;3.67;;;1.90;;
28009;SDS011;15334;49.494;8.410;2023-05-07T13:20:59;2.35;;;1.38;;
28009;SDS011;15334;49.494;8.410;2023-05-07T13:23:27;4.05;;;1.58;;
28009;SDS011;15334;49.494;8.410;2023-05-07T13:25:57;4.72;;;2.78;;
28009;SDS011;15334;49.494;8.410;2023-05-07T13:28:31;4.35;;;1.45;;
28009;SDS011;15334;49.494;8.410;2023-05-07T13:30:59;3.00;;;1.27;;
28009;SDS011;15334;49.494;8.410;2023-05-07T13:33:27;5.80;;;2.83;;
28009;SDS011;15334;49.494;8.410;2023-05-07T13:35:55;2.88;;;1.70;;
28009;SDS011;15334;49.494;8.410;2023-05-07T13:38:24;3.95;;;1.60;;
28009;SDS011;15334;49.494;8.410;2023-05-07T13:40:52;2.75;;;1.70;;
28009;SDS011;15334;49.494;8.410;2023-05-07T13:43:21;4.28;;;2.03;;
28009;SDS011;15334;49.494;8.410;2023-05-07T13:45:49;5.13;;;2.10;;
28009;SDS011;15334;49.494;8.410;2023-05-07T13:48:17;4.35;;;2.33;;
28009;SDS011;15334;49.494;8.410;2023-05-07T13:50:45;3.72;;;2.13;;
28009;SDS011;15334;49.494;8.410;2023-05-07T13:53:13;3.50;;;1.83;;
28009;SDS011;15334;49.494;8.410;2023-05-07T13:55:44;4.88;;;2.03;;
28009;SDS011;15334;49.494;8.410;2023-05-07T13:58:12;3.05;;;1.80;;
28009;SDS011;15334;49.494;8.410;2023-05-07T14:00:41;3.63;;;1.83;;
28009;SDS011;15334;49.494;8.410;2023-05-07T14:03:09;2.70;;;1.70;;
28009;SDS011;15334;49.494;8.410;2023-05-07T14:05:38;4.03;;;2.20;;
28009;SDS011;15334;49.494;8.410;2023-05-07T14:08:05;4.30;;;2.53;;
28009;SDS011;15334;49.494;8.410;2023-05-07T14:10:34;7.40;;;2.28;;
28009;SDS011;15334;49.494;8.410;2023-05-07T14:13:02;4.60;;;2.30;;
28009;SDS011;15334;49.494;8.410;2023-05-07T14:15:30;3.65;;;2.38;;
28009;SDS011;15334;49.494;8.410;2023-05-07T14:18:00;5.50;;;2.00;;
28009;SDS011;15334;49.494;8.410;2023-05-07T14:20:28;6.15;;;2.35;;
28009;SDS011;15334;49.494;8.410;2023-05-07T14:22:57;4.85;;;1.92;;
28009;SDS011;15334;49.494;8.410;2023-05-07T14:25:25;4.20;;;2.00;;
28009;SDS011;15334;49.494;8.410;2023-05-07T14:27:53;3.40;;;2.20;;
28009;SDS011;15334;49.494;8.410;2023-05-07T14:30:21;5.35;;;2.58;;
28009;SDS011;15334;49.494;8.410;2023-05-07T14:32:50;5.15;;;2.65;;
28009;SDS011;15334;49.494;8.410;2023-05-07T14:35:20;4.38;;;2.55;;
28009;SDS011;15334;49.494;8.410;2023-05-07T14:37:48;3.65;;;2.47;;
28009;SDS011;15334;49.494;8.410;2023-05-07T14:40:15;4.65;;;2.88;;
28009;SDS011;15334;49.494;8.410;2023-05-07T14:42:43;6.70;;;3.53;;
28009;SDS011;15334;49.494;8.410;2023-05-07T14:45:12;5.45;;;3.35;;
28009;SDS011;15334;49.494;8.410;2023-05-07T14:47:40;7.03;;;3.55;;
28009;SDS011;15334;49.494;8.410;2023-05-07T14:50:08;7.32;;;3.72;;
28009;SDS011;15334;49.494;8.410;2023-05-07T14:52:38;7.65;;;4.20;;
28009;SDS011;15334;49.494;8.410;2023-05-07T14:55:06;7.85;;;3.95;;
28009;SDS011;15334;49.494;8.410;2023-05-07T14:57:35;8.25;;;4.00;;
28009;SDS011;15334;49.494;8.410;2023-05-07T15:00:03;7.07;;;4.22;;
28009;SDS011;15334;49.494;8.410;2023-05-07T15:02:34;7.80;;;4.03;;
28009;SDS011;15334;49.494;8.410;2023-05-07T15:05:03;8.70;;;4.00;;
28009;SDS011;15334;49.494;8.410;2023-05-07T15:07:32;10.57;;;4.20;;
28009;SDS011;15334;49.494;8.410;2023-05-07T15:10:01;7.13;;;4.38;;
28009;SDS011;15334;49.494;8.410;2023-05-07T15:12:30;9.13;;;5.35;;
28009;SDS011;15334;49.494;8.410;2023-05-07T15:14:58;10.18;;;5.38;;
28009;SDS011;15334;49.494;8.410;2023-05-07T15:17:26;8.73;;;6.03;;